SHT9Q EGPH-EGLL
Flight info
| Callsign | SHT9Q |
|---|---|
| Flight time | 0h 57m |
| Altitude | 33000 |
| Route | GOSAM1D GOSAM P600 FENIK L612 NAVSO DCT AKOMU DCT VAMEB DCT NUGRA NUGRA2H |
| Aircraft | A320/M-SDE3FGHIJ1KRWXY/SB1 |
Departure
| Time | 2026-04-20 16:24 |
|---|---|
| Airport | Edinburgh Airport (EGPH) |
Arrival
| Time | 2026-04-20 17:21 |
|---|---|
| Airport | London Heathrow Airport (EGLL) |
| Time | Latitude | Longitude | Altitude | Speed | Heading |
|---|---|---|---|---|---|
| 2026-04-20 15:52 | 55.94921 | -3.36430 | 113 ft | 0 kts | 148° |
| 2026-04-20 16:13 | 55.94935 | -3.36445 | 113 ft | 4 kts | 149° |
| 2026-04-20 16:13 | 55.94953 | -3.36466 | 113 ft | 4 kts | 155° |
| 2026-04-20 16:13 | 55.94977 | -3.36475 | 112 ft | 4 kts | 199° |
| 2026-04-20 16:13 | 55.94996 | -3.36450 | 112 ft | 2 kts | 238° |
| 2026-04-20 16:14 | 55.94996 | -3.36448 | 112 ft | 0 kts | 238° |
| 2026-04-20 16:16 | 55.94992 | -3.36461 | 116 ft | 3 kts | 238° |
| 2026-04-20 16:17 | 55.94976 | -3.36510 | 115 ft | 6 kts | 238° |
| 2026-04-20 16:17 | 55.94948 | -3.36591 | 116 ft | 9 kts | 238° |
| 2026-04-20 16:17 | 55.94911 | -3.36700 | 116 ft | 11 kts | 238° |
| 2026-04-20 16:17 | 55.94912 | -3.36827 | 116 ft | 12 kts | 305° |
| 2026-04-20 16:18 | 55.94904 | -3.36968 | 115 ft | 14 kts | 238° |
| 2026-04-20 16:18 | 55.94850 | -3.37122 | 113 ft | 16 kts | 239° |
| 2026-04-20 16:18 | 55.94790 | -3.37301 | 114 ft | 18 kts | 239° |
| 2026-04-20 16:18 | 55.94722 | -3.37503 | 116 ft | 20 kts | 239° |
| 2026-04-20 16:19 | 55.94646 | -3.37728 | 113 ft | 22 kts | 239° |
| 2026-04-20 16:19 | 55.94577 | -3.37930 | 116 ft | 20 kts | 239° |
| 2026-04-20 16:19 | 55.94503 | -3.38149 | 114 ft | 22 kts | 239° |
| 2026-04-20 16:19 | 55.94421 | -3.38389 | 114 ft | 21 kts | 238° |
| 2026-04-20 16:20 | 55.94354 | -3.38584 | 114 ft | 15 kts | 238° |
| 2026-04-20 16:20 | 55.94297 | -3.38750 | 113 ft | 15 kts | 239° |
| 2026-04-20 16:20 | 55.94281 | -3.38851 | 116 ft | 8 kts | 302° |
| 2026-04-20 16:20 | 55.94321 | -3.38904 | 113 ft | 4 kts | 329° |
| 2026-04-20 16:21 | 55.94322 | -3.38905 | 114 ft | 1 kts | 329° |
| 2026-04-20 16:22 | 55.94323 | -3.38906 | 114 ft | 1 kts | 329° |
| 2026-04-20 16:22 | 55.94338 | -3.38922 | 114 ft | 6 kts | 329° |
| 2026-04-20 16:22 | 55.94395 | -3.38976 | 114 ft | 11 kts | 351° |
| 2026-04-20 16:22 | 55.94432 | -3.38924 | 114 ft | 0 kts | 60° |
| 2026-04-20 16:23 | 55.94451 | -3.38866 | 114 ft | 26 kts | 59° |
| 2026-04-20 16:23 | 55.94673 | -3.38213 | 115 ft | 93 kts | 59° |
| 2026-04-20 16:23 | 55.95099 | -3.36958 | 136 ft | 139 kts | 58° |
| 2026-04-20 16:24 | 55.95596 | -3.35508 | 738 ft | 134 kts | 60° |
| 2026-04-20 16:24 | 55.96143 | -3.34117 | 1348 ft | 139 kts | 49° |
| 2026-04-20 16:24 | 55.96902 | -3.32911 | 1755 ft | 154 kts | 44° |
| 2026-04-20 16:24 | 55.97758 | -3.31523 | 2049 ft | 177 kts | 44° |
| 2026-04-20 16:25 | 55.98732 | -3.29936 | 2352 ft | 202 kts | 44° |
| 2026-04-20 16:25 | 55.99910 | -3.28369 | 2768 ft | 229 kts | 24° |
| 2026-04-20 16:25 | 56.01572 | -3.28218 | 3299 ft | 256 kts | 345° |
| 2026-04-20 16:25 | 56.03053 | -3.30043 | 4126 ft | 267 kts | 307° |
| 2026-04-20 16:26 | 56.03695 | -3.33138 | 5074 ft | 271 kts | 272° |
| 2026-04-20 16:26 | 56.03504 | -3.36500 | 5753 ft | 274 kts | 256° |
| 2026-04-20 16:26 | 56.02962 | -3.39750 | 5957 ft | 272 kts | 250° |
| 2026-04-20 16:26 | 56.02316 | -3.42932 | 6009 ft | 273 kts | 248° |
| 2026-04-20 16:27 | 56.01677 | -3.46142 | 6027 ft | 274 kts | 249° |
| 2026-04-20 16:27 | 56.01095 | -3.49360 | 6848 ft | 275 kts | 251° |
| 2026-04-20 16:27 | 56.00551 | -3.52649 | 7768 ft | 277 kts | 253° |
| 2026-04-20 16:27 | 56.00036 | -3.55995 | 8646 ft | 281 kts | 253° |
| 2026-04-20 16:28 | 55.99534 | -3.59410 | 9454 ft | 287 kts | 254° |
| 2026-04-20 16:28 | 55.99034 | -3.62905 | 10278 ft | 293 kts | 254° |
| 2026-04-20 16:28 | 55.98519 | -3.66527 | 10682 ft | 312 kts | 254° |
| 2026-04-20 16:28 | 55.97962 | -3.70420 | 10900 ft | 334 kts | 254° |
| 2026-04-20 16:29 | 55.97374 | -3.74523 | 11436 ft | 344 kts | 255° |
| 2026-04-20 16:29 | 55.96777 | -3.78674 | 12142 ft | 348 kts | 254° |
| 2026-04-20 16:29 | 55.96110 | -3.82848 | 12842 ft | 350 kts | 246° |
| 2026-04-20 16:29 | 55.94857 | -3.86559 | 13498 ft | 351 kts | 226° |
| 2026-04-20 16:30 | 55.92974 | -3.89311 | 14213 ft | 350 kts | 207° |
| 2026-04-20 16:30 | 55.90692 | -3.90768 | 14853 ft | 349 kts | 187° |
| 2026-04-20 16:30 | 55.88297 | -3.90831 | 15464 ft | 350 kts | 173° |
| 2026-04-20 16:30 | 55.85862 | -3.90473 | 16108 ft | 352 kts | 173° |
| 2026-04-20 16:31 | 55.83409 | -3.90102 | 16712 ft | 355 kts | 174° |
| 2026-04-20 16:31 | 55.80926 | -3.89725 | 17312 ft | 359 kts | 174° |
| 2026-04-20 16:31 | 55.78424 | -3.89352 | 17902 ft | 363 kts | 174° |
| 2026-04-20 16:31 | 55.75883 | -3.88980 | 18533 ft | 366 kts | 174° |
| 2026-04-20 16:32 | 55.73328 | -3.88612 | 19097 ft | 370 kts | 174° |
| 2026-04-20 16:32 | 55.70755 | -3.88240 | 19700 ft | 372 kts | 174° |
| 2026-04-20 16:32 | 55.68158 | -3.87864 | 20240 ft | 377 kts | 175° |
| 2026-04-20 16:32 | 55.65570 | -3.87040 | 20807 ft | 380 kts | 161° |
| 2026-04-20 16:33 | 55.63069 | -3.85464 | 21367 ft | 383 kts | 160° |
| 2026-04-20 16:33 | 55.60551 | -3.83824 | 21906 ft | 386 kts | 160° |
| 2026-04-20 16:33 | 55.58044 | -3.82171 | 22442 ft | 389 kts | 160° |
| 2026-04-20 16:33 | 55.55496 | -3.80481 | 23010 ft | 391 kts | 160° |
| 2026-04-20 16:34 | 55.52934 | -3.78783 | 23509 ft | 395 kts | 160° |
| 2026-04-20 16:34 | 55.50350 | -3.77083 | 24011 ft | 397 kts | 160° |
| 2026-04-20 16:34 | 55.47741 | -3.75377 | 24441 ft | 400 kts | 160° |
| 2026-04-20 16:34 | 55.45116 | -3.73669 | 24755 ft | 406 kts | 161° |
| 2026-04-20 16:35 | 55.42431 | -3.71923 | 25000 ft | 413 kts | 160° |
| 2026-04-20 16:35 | 55.39754 | -3.70185 | 25319 ft | 418 kts | 161° |
| 2026-04-20 16:35 | 55.37009 | -3.68405 | 25697 ft | 421 kts | 160° |
| 2026-04-20 16:35 | 55.34255 | -3.66619 | 26084 ft | 424 kts | 160° |
| 2026-04-20 16:36 | 55.31474 | -3.64823 | 26421 ft | 427 kts | 161° |
| 2026-04-20 16:36 | 55.28670 | -3.63018 | 26747 ft | 431 kts | 160° |
| 2026-04-20 16:36 | 55.25846 | -3.61202 | 27116 ft | 434 kts | 161° |
| 2026-04-20 16:36 | 55.23001 | -3.59372 | 27446 ft | 437 kts | 160° |
| 2026-04-20 16:37 | 55.20132 | -3.57529 | 27761 ft | 441 kts | 160° |
| 2026-04-20 16:37 | 55.17242 | -3.55674 | 28129 ft | 444 kts | 160° |
| 2026-04-20 16:37 | 55.14334 | -3.53808 | 28488 ft | 446 kts | 160° |
| 2026-04-20 16:37 | 55.11409 | -3.51935 | 28844 ft | 449 kts | 160° |
| 2026-04-20 16:38 | 55.08468 | -3.50057 | 29206 ft | 451 kts | 160° |
| 2026-04-20 16:38 | 55.05502 | -3.48166 | 29541 ft | 454 kts | 160° |
| 2026-04-20 16:38 | 55.02552 | -3.46287 | 29862 ft | 457 kts | 160° |
| 2026-04-20 16:38 | 54.99550 | -3.44377 | 30198 ft | 460 kts | 160° |
| 2026-04-20 16:39 | 54.96524 | -3.42459 | 30554 ft | 461 kts | 160° |
| 2026-04-20 16:39 | 54.93496 | -3.40542 | 30908 ft | 461 kts | 161° |
| 2026-04-20 16:39 | 54.90510 | -3.38652 | 31239 ft | 462 kts | 161° |
| 2026-04-20 16:39 | 54.87483 | -3.36739 | 31600 ft | 463 kts | 161° |
| 2026-04-20 16:40 | 54.84452 | -3.34829 | 31972 ft | 463 kts | 161° |
| 2026-04-20 16:40 | 54.81421 | -3.32920 | 32349 ft | 463 kts | 161° |
| 2026-04-20 16:40 | 54.78386 | -3.31012 | 32725 ft | 463 kts | 161° |
| 2026-04-20 16:40 | 54.75351 | -3.29106 | 33105 ft | 464 kts | 161° |
| 2026-04-20 16:41 | 54.72312 | -3.27201 | 33286 ft | 465 kts | 161° |
| 2026-04-20 16:41 | 54.69269 | -3.25297 | 33312 ft | 465 kts | 161° |
| 2026-04-20 16:41 | 54.63170 | -3.21494 | 33319 ft | 465 kts | 161° |
| 2026-04-20 16:42 | 54.57111 | -3.17729 | 33316 ft | 465 kts | 161° |
| 2026-04-20 16:42 | 54.51007 | -3.13934 | 33316 ft | 465 kts | 161° |
| 2026-04-20 16:43 | 54.44904 | -3.10176 | 33305 ft | 465 kts | 161° |
| 2026-04-20 16:43 | 54.38779 | -3.06562 | 33304 ft | 465 kts | 162° |
| 2026-04-20 16:44 | 54.32630 | -3.03045 | 33307 ft | 466 kts | 162° |
| 2026-04-20 16:44 | 54.26478 | -2.99519 | 33310 ft | 466 kts | 162° |
| 2026-04-20 16:45 | 54.20324 | -2.95968 | 33302 ft | 466 kts | 162° |
| 2026-04-20 16:45 | 54.14215 | -2.92458 | 33307 ft | 467 kts | 163° |
| 2026-04-20 16:46 | 54.08049 | -2.88920 | 33314 ft | 467 kts | 163° |
| 2026-04-20 16:46 | 54.01886 | -2.85406 | 33311 ft | 467 kts | 163° |
| 2026-04-20 16:47 | 53.95703 | -2.81895 | 33298 ft | 467 kts | 163° |
| 2026-04-20 16:47 | 53.89539 | -2.78398 | 33295 ft | 468 kts | 163° |
| 2026-04-20 16:48 | 53.84407 | -2.75493 | 33295 ft | 468 kts | 163° |
| 2026-04-20 16:48 | 53.77216 | -2.71430 | 33301 ft | 468 kts | 163° |
| 2026-04-20 16:49 | 53.72042 | -2.68512 | 33308 ft | 468 kts | 163° |
| 2026-04-20 16:49 | 53.65850 | -2.65042 | 33290 ft | 468 kts | 164° |
| 2026-04-20 16:50 | 53.59695 | -2.61595 | 33290 ft | 469 kts | 164° |
| 2026-04-20 16:50 | 53.53500 | -2.58142 | 33311 ft | 469 kts | 164° |
| 2026-04-20 16:51 | 53.47331 | -2.54721 | 33295 ft | 468 kts | 164° |
| 2026-04-20 16:51 | 53.41140 | -2.51304 | 33307 ft | 468 kts | 164° |
| 2026-04-20 16:52 | 53.34957 | -2.47894 | 33301 ft | 468 kts | 164° |
| 2026-04-20 16:52 | 53.28775 | -2.44480 | 33294 ft | 468 kts | 164° |
| 2026-04-20 16:53 | 53.22575 | -2.41068 | 33281 ft | 468 kts | 164° |
| 2026-04-20 16:53 | 53.16383 | -2.37691 | 33281 ft | 468 kts | 165° |
| 2026-04-20 16:54 | 53.10220 | -2.34343 | 33279 ft | 469 kts | 165° |
| 2026-04-20 16:54 | 53.04036 | -2.30876 | 33278 ft | 470 kts | 159° |
| 2026-04-20 16:55 | 52.98311 | -2.25501 | 33254 ft | 474 kts | 149° |
| 2026-04-20 16:55 | 52.92728 | -2.19621 | 33260 ft | 475 kts | 150° |
| 2026-04-20 16:56 | 52.87145 | -2.13799 | 33270 ft | 477 kts | 150° |
| 2026-04-20 16:56 | 52.84326 | -2.10863 | 33107 ft | 478 kts | 150° |
| 2026-04-20 16:56 | 52.81499 | -2.07920 | 32839 ft | 479 kts | 150° |
| 2026-04-20 16:57 | 52.78692 | -2.04999 | 32418 ft | 476 kts | 150° |
| 2026-04-20 16:57 | 52.75891 | -2.02084 | 31796 ft | 474 kts | 150° |
| 2026-04-20 16:57 | 52.73100 | -1.99184 | 31198 ft | 473 kts | 151° |
| 2026-04-20 16:57 | 52.70353 | -1.96340 | 30606 ft | 472 kts | 152° |
| 2026-04-20 16:58 | 52.67572 | -1.93466 | 29935 ft | 471 kts | 152° |
| 2026-04-20 16:58 | 52.64805 | -1.90610 | 29315 ft | 468 kts | 152° |
| 2026-04-20 16:58 | 52.62053 | -1.87768 | 28721 ft | 464 kts | 151° |
| 2026-04-20 16:58 | 52.59322 | -1.84957 | 28130 ft | 461 kts | 151° |
| 2026-04-20 16:59 | 52.56607 | -1.82169 | 27535 ft | 458 kts | 151° |
| 2026-04-20 16:59 | 52.53909 | -1.79403 | 26947 ft | 455 kts | 151° |
| 2026-04-20 16:59 | 52.51232 | -1.76662 | 26367 ft | 452 kts | 151° |
| 2026-04-20 16:59 | 52.48568 | -1.73938 | 25803 ft | 450 kts | 152° |
| 2026-04-20 17:00 | 52.43282 | -1.68553 | 24713 ft | 448 kts | 152° |
| 2026-04-20 17:00 | 52.40632 | -1.65859 | 24175 ft | 447 kts | 152° |
| 2026-04-20 17:00 | 52.37999 | -1.63183 | 23625 ft | 445 kts | 152° |
| 2026-04-20 17:01 | 52.35383 | -1.60523 | 23103 ft | 441 kts | 152° |
| 2026-04-20 17:01 | 52.32783 | -1.57880 | 22586 ft | 437 kts | 151° |
| 2026-04-20 17:01 | 52.30213 | -1.55270 | 22095 ft | 433 kts | 151° |
| 2026-04-20 17:01 | 52.27660 | -1.52685 | 21574 ft | 430 kts | 151° |
| 2026-04-20 17:02 | 52.25112 | -1.50109 | 21049 ft | 428 kts | 151° |
| 2026-04-20 17:02 | 52.22588 | -1.47558 | 20517 ft | 427 kts | 149° |
| 2026-04-20 17:02 | 52.20226 | -1.44622 | 20035 ft | 426 kts | 140° |
| 2026-04-20 17:02 | 52.17999 | -1.41485 | 19642 ft | 420 kts | 140° |
| 2026-04-20 17:03 | 52.15800 | -1.38406 | 19227 ft | 414 kts | 140° |
| 2026-04-20 17:03 | 52.13617 | -1.35368 | 18798 ft | 409 kts | 140° |
| 2026-04-20 17:03 | 52.11463 | -1.32381 | 18347 ft | 404 kts | 140° |
| 2026-04-20 17:03 | 52.09336 | -1.29431 | 17901 ft | 398 kts | 140° |
| 2026-04-20 17:04 | 52.07276 | -1.26574 | 17502 ft | 390 kts | 140° |
| 2026-04-20 17:04 | 52.05227 | -1.23736 | 17109 ft | 383 kts | 140° |
| 2026-04-20 17:04 | 52.03217 | -1.20951 | 16716 ft | 376 kts | 140° |
| 2026-04-20 17:04 | 52.01243 | -1.18217 | 16301 ft | 371 kts | 140° |
| 2026-04-20 17:05 | 51.99288 | -1.15516 | 15925 ft | 368 kts | 140° |
| 2026-04-20 17:05 | 51.97349 | -1.12837 | 15553 ft | 364 kts | 140° |
| 2026-04-20 17:05 | 51.95426 | -1.10183 | 15175 ft | 361 kts | 140° |
| 2026-04-20 17:05 | 51.93493 | -1.07513 | 14425 ft | 367 kts | 140° |
| 2026-04-20 17:06 | 51.91598 | -1.04902 | 14213 ft | 344 kts | 140° |
| 2026-04-20 17:06 | 51.89834 | -1.02474 | 14020 ft | 323 kts | 140° |
| 2026-04-20 17:06 | 51.88148 | -1.00157 | 13496 ft | 313 kts | 140° |
| 2026-04-20 17:06 | 51.86500 | -0.97896 | 12898 ft | 308 kts | 139° |
| 2026-04-20 17:07 | 51.85112 | -0.95390 | 12457 ft | 298 kts | 122° |
| 2026-04-20 17:07 | 51.84141 | -0.92480 | 11910 ft | 292 kts | 115° |
| 2026-04-20 17:07 | 51.83249 | -0.89552 | 11366 ft | 288 kts | 114° |
| 2026-04-20 17:07 | 51.82365 | -0.86659 | 10836 ft | 285 kts | 115° |
| 2026-04-20 17:08 | 51.81486 | -0.83786 | 10532 ft | 282 kts | 115° |
| 2026-04-20 17:08 | 51.80622 | -0.80955 | 10265 ft | 279 kts | 115° |
| 2026-04-20 17:08 | 51.79764 | -0.78149 | 9956 ft | 277 kts | 115° |
| 2026-04-20 17:08 | 51.78907 | -0.75360 | 9625 ft | 276 kts | 115° |
| 2026-04-20 17:09 | 51.78051 | -0.72592 | 9311 ft | 274 kts | 114° |
| 2026-04-20 17:09 | 51.77209 | -0.69871 | 9010 ft | 273 kts | 115° |
| 2026-04-20 17:09 | 51.76367 | -0.67144 | 8720 ft | 270 kts | 114° |
| 2026-04-20 17:09 | 51.75537 | -0.64451 | 8437 ft | 262 kts | 115° |
| 2026-04-20 17:10 | 51.74742 | -0.61878 | 8184 ft | 250 kts | 114° |
| 2026-04-20 17:10 | 51.73975 | -0.59391 | 7920 ft | 246 kts | 115° |
| 2026-04-20 17:10 | 51.73014 | -0.57128 | 7691 ft | 247 kts | 137° |
| 2026-04-20 17:10 | 51.71487 | -0.55897 | 7442 ft | 249 kts | 169° |
| 2026-04-20 17:11 | 51.69784 | -0.56122 | 7274 ft | 250 kts | 201° |
| 2026-04-20 17:11 | 51.68387 | -0.57695 | 7273 ft | 250 kts | 228° |
| 2026-04-20 17:11 | 51.67229 | -0.59856 | 7270 ft | 252 kts | 231° |
| 2026-04-20 17:11 | 51.66128 | -0.61988 | 7273 ft | 250 kts | 231° |
| 2026-04-20 17:12 | 51.65016 | -0.64155 | 7141 ft | 253 kts | 231° |
| 2026-04-20 17:12 | 51.63902 | -0.66330 | 6885 ft | 251 kts | 231° |
| 2026-04-20 17:12 | 51.62791 | -0.68504 | 6635 ft | 252 kts | 231° |
| 2026-04-20 17:12 | 51.61685 | -0.70675 | 6367 ft | 250 kts | 231° |
| 2026-04-20 17:13 | 51.60587 | -0.72838 | 6101 ft | 249 kts | 231° |
| 2026-04-20 17:13 | 51.59499 | -0.74989 | 5783 ft | 248 kts | 231° |
| 2026-04-20 17:13 | 51.58409 | -0.77144 | 5487 ft | 248 kts | 231° |
| 2026-04-20 17:13 | 51.57325 | -0.79287 | 5200 ft | 246 kts | 231° |
| 2026-04-20 17:14 | 51.56244 | -0.81431 | 4876 ft | 247 kts | 231° |
| 2026-04-20 17:14 | 51.55155 | -0.83509 | 4567 ft | 245 kts | 221° |
| 2026-04-20 17:14 | 51.53696 | -0.84784 | 4251 ft | 239 kts | 190° |
| 2026-04-20 17:14 | 51.52055 | -0.85151 | 3930 ft | 237 kts | 182° |
| 2026-04-20 17:15 | 51.50424 | -0.85244 | 3738 ft | 228 kts | 168° |
| 2026-04-20 17:15 | 51.49037 | -0.84291 | 3609 ft | 211 kts | 138° |
| 2026-04-20 17:15 | 51.47986 | -0.82741 | 3480 ft | 199 kts | 123° |
| 2026-04-20 17:15 | 51.47566 | -0.80805 | 3409 ft | 178 kts | 89° |
| 2026-04-20 17:16 | 51.47576 | -0.78826 | 3300 ft | 176 kts | 86° |
| 2026-04-20 17:16 | 51.47595 | -0.76875 | 3190 ft | 174 kts | 86° |
| 2026-04-20 17:16 | 51.47609 | -0.74938 | 3100 ft | 174 kts | 87° |
| 2026-04-20 17:16 | 51.47622 | -0.73017 | 3033 ft | 175 kts | 87° |
| 2026-04-20 17:17 | 51.47634 | -0.71059 | 2885 ft | 175 kts | 87° |
| 2026-04-20 17:17 | 51.47646 | -0.69122 | 2675 ft | 173 kts | 87° |
| 2026-04-20 17:17 | 51.47657 | -0.67204 | 2446 ft | 171 kts | 86° |
| 2026-04-20 17:17 | 51.47668 | -0.65288 | 2215 ft | 171 kts | 86° |
| 2026-04-20 17:18 | 51.47678 | -0.63381 | 1982 ft | 171 kts | 87° |
| 2026-04-20 17:18 | 51.47688 | -0.61478 | 1745 ft | 169 kts | 87° |
| 2026-04-20 17:18 | 51.47697 | -0.59619 | 1516 ft | 164 kts | 86° |
| 2026-04-20 17:18 | 51.47705 | -0.57831 | 1288 ft | 153 kts | 86° |
| 2026-04-20 17:19 | 51.47712 | -0.56238 | 1107 ft | 137 kts | 86° |
| 2026-04-20 17:19 | 51.47719 | -0.54751 | 912 ft | 131 kts | 86° |
| 2026-04-20 17:19 | 51.47726 | -0.53294 | 732 ft | 130 kts | 87° |
| 2026-04-20 17:19 | 51.47734 | -0.51848 | 544 ft | 130 kts | 88° |
| 2026-04-20 17:20 | 51.47742 | -0.50408 | 381 ft | 128 kts | 88° |
| 2026-04-20 17:20 | 51.47748 | -0.48980 | 196 ft | 128 kts | 88° |
| 2026-04-20 17:20 | 51.47753 | -0.47563 | 87 ft | 117 kts | 90° |
| 2026-04-20 17:20 | 51.47758 | -0.46536 | 92 ft | 62 kts | 90° |
| 2026-04-20 17:21 | 51.47738 | -0.46187 | 87 ft | 22 kts | 130° |
| 2026-04-20 17:21 | 51.47630 | -0.46078 | 90 ft | 17 kts | 175° |
| 2026-04-20 17:21 | 51.47594 | -0.46238 | 87 ft | 17 kts | 269° |
| 2026-04-20 17:21 | 51.47593 | -0.46443 | 86 ft | 20 kts | 269° |
| 2026-04-20 17:22 | 51.47593 | -0.46677 | 86 ft | 22 kts | 270° |
| 2026-04-20 17:22 | 51.47582 | -0.46903 | 86 ft | 20 kts | 265° |
| 2026-04-20 17:22 | 51.47584 | -0.47134 | 90 ft | 22 kts | 270° |
| 2026-04-20 17:22 | 51.47582 | -0.47393 | 87 ft | 24 kts | 269° |
| 2026-04-20 17:23 | 51.47580 | -0.47672 | 90 ft | 27 kts | 269° |
| 2026-04-20 17:23 | 51.47579 | -0.47931 | 88 ft | 22 kts | 269° |
| 2026-04-20 17:23 | 51.47578 | -0.48160 | 88 ft | 21 kts | 270° |
| 2026-04-20 17:23 | 51.47579 | -0.48404 | 90 ft | 21 kts | 270° |
| 2026-04-20 17:24 | 51.47578 | -0.48622 | 86 ft | 21 kts | 270° |
| 2026-04-20 17:24 | 51.47577 | -0.48855 | 86 ft | 17 kts | 269° |
| 2026-04-20 17:24 | 51.47519 | -0.48957 | 90 ft | 15 kts | 176° |
| 2026-04-20 17:24 | 51.47446 | -0.48953 | 88 ft | 7 kts | 179° |
| 2026-04-20 17:25 | 51.47420 | -0.48953 | 87 ft | 1 kts | 180° |
| 2026-04-20 17:25 | 51.47417 | -0.48953 | 88 ft | 0 kts | 180° |